Terminal Aerodrome Forecast
Issued by NWS

Current Version | Previous Version | Text Only | Print | Product List | Glossary Off
Versions: 1 2 3 4 5 6 7 8 9 10 11 12 13 14 15 16 17 18 19 20 21 22

000
FTUS41 KPBZ 180500
TAFHLG
TAF
KHLG 180523Z 1806/1906 25010KT P6SM BKN040
     FM180800 28009KT P6SM BKN025
      TEMPO 1808/1811 -SHRA
     FM181800 28012G22KT P6SM VCSH OVC022
     FM190300 30009KT P6SM BKN025=

USA.gov is the U.S. government's official web portal to all federal, state and local government web resources and services.